Time;durP1;ratioP1;P1;durP2;ratioP2;P2;SDS_P1;SDS_P2;PMS_P1;PMS_P2;Temp;Humidity;BMP_temperature;BMP_pressure;BME280_temperature;BME280_humidity;BME280_pressure;Samples;Min_cycle;Max_cycle;Signal;HPM_P1;HPM_P2
2022/10/19 00:01:19;;;;;;;9.27;3.67;;;;;;;7.08;53.63;94542.41;5147339;27;20125;-78
2022/10/19 00:03:47;;;;;;;5.97;3.23;;;;;;;7.03;53.86;94543.22;5146165;27;20030;-78
2022/10/19 00:06:15;;;;;;;5.85;3.03;;;;;;;6.99;53.68;94541.41;5147417;27;20370;-77
2022/10/19 00:08:42;;;;;;;10.85;3.28;;;;;;;6.94;53.91;94528.97;5147280;27;20022;-78
2022/10/19 00:11:08;;;;;;;9.30;3.28;;;;;;;6.91;54.11;94529.50;5147014;27;20022;-77
2022/10/19 00:13:34;;;;;;;6.22;3.08;;;;;;;6.89;53.71;94541.47;5147194;27;20306;-77
2022/10/19 00:16:00;;;;;;;9.45;3.20;;;;;;;6.85;54.23;94535.13;5147409;27;20241;-77
2022/10/19 00:18:26;;;;;;;5.72;3.00;;;;;;;6.81;54.15;94524.25;5146982;27;20044;-78
2022/10/19 00:20:51;;;;;;;6.68;3.20;;;;;;;6.75;55.14;94530.66;5147135;27;20035;-78
2022/10/19 00:23:17;;;;;;;6.60;3.28;;;;;;;6.74;54.76;94523.78;5146987;27;20023;-77
2022/10/19 00:25:52;;;;;;;4.82;3.00;;;;;;;6.73;54.17;94516.88;5146819;27;20027;-77
2022/10/19 00:28:19;;;;;;;10.43;3.33;;;;;;;6.70;54.23;94517.44;5146977;27;20011;-77
2022/10/19 00:30:44;;;;;;;7.72;2.88;;;;;;;6.71;54.57;94508.41;5146904;27;20015;-78
2022/10/19 00:33:09;;;;;;;7.85;2.88;;;;;;;6.63;54.80;94505.28;5146652;27;20019;-79
2022/10/19 00:35:39;;;;;;;5.75;2.53;;;;;;;6.63;55.00;94499.19;5146766;27;20015;-77
2022/10/19 00:38:05;;;;;;;5.45;2.38;;;;;;;6.56;55.17;94493.41;5146678;27;20038;-77
2022/10/19 00:40:37;;;;;;;10.60;2.95;;;;;;;6.54;55.45;94487.56;5146619;27;20022;-77
2022/10/19 00:43:02;;;;;;;8.40;4.10;;;;;;;6.52;55.47;94485.19;5146657;27;20033;-77
2022/10/19 00:45:28;;;;;;;10.98;2.72;;;;;;;6.52;55.34;94479.91;5146789;27;20031;-78
2022/10/19 00:47:53;;;;;;;4.72;2.28;;;;;;;6.48;55.57;94478.84;5146309;27;20031;-78
2022/10/19 00:50:19;;;;;;;6.82;3.00;;;;;;;6.44;55.41;94472.53;5146446;27;20031;-78
2022/10/19 00:52:45;;;;;;;5.32;2.60;;;;;;;6.46;55.93;94470.41;5145744;27;20037;-79
2022/10/19 00:55:11;;;;;;;5.75;2.72;;;;;;;6.43;56.17;94470.91;5146340;27;20023;-79
2022/10/19 00:57:38;;;;;;;6.78;2.63;;;;;;;6.38;55.94;94473.59;5146388;27;20034;-79
2022/10/19 01:00:05;;;;;;;6.22;2.58;;;;;;;6.42;53.80;94475.44;5146234;27;20029;-78
2022/10/19 01:02:31;;;;;;;5.32;2.75;;;;;;;6.47;53.66;94471.97;5145256;27;20019;-78
2022/10/19 01:04:58;;;;;;;5.15;2.63;;;;;;;6.50;53.18;94468.78;5146276;27;20019;-79
2022/10/19 01:07:25;;;;;;;8.18;3.10;;;;;;;6.56;52.74;94459.75;5146167;27;20035;-79
2022/10/19 01:09:51;;;;;;;6.15;2.90;;;;;;;6.56;52.88;94454.44;5144984;27;20019;-79
2022/10/19 01:12:38;;;;;;;6.90;2.40;;;;;;;6.62;53.12;94447.28;5146030;27;20019;-79
2022/10/19 01:15:28;;;;;;;9.73;2.25;;;;;;;6.64;53.77;94445.16;5145908;27;20026;-79
2022/10/19 01:18:05;;;;;;;5.20;2.20;;;;;;;6.61;54.33;94437.72;5145876;27;20063;-78
2022/10/19 01:20:38;;;;;;;11.82;2.72;;;;;;;6.56;54.94;94440.44;5146107;27;20030;-79
2022/10/19 01:23:15;;;;;;;5.90;2.45;;;;;;;6.53;55.02;94439.09;5145841;27;20019;-79
2022/10/19 01:26:02;;;;;;;6.03;2.40;;;;;;;6.49;55.03;94432.75;5145763;27;20242;-79
2022/10/19 01:28:53;;;;;;;5.20;2.53;;;;;;;6.45;55.20;94437.00;5145873;27;20019;-79
2022/10/19 01:31:41;;;;;;;4.55;2.20;;;;;;;6.41;55.45;94435.97;5139815;27;20263;-79
2022/10/19 01:34:22;;;;;;;5.93;2.20;;;;;;;6.37;55.87;94432.28;5145645;27;20246;-78
2022/10/19 01:36:56;;;;;;;6.63;2.25;;;;;;;6.33;55.88;94428.59;5145452;27;20034;-78
2022/10/19 01:39:52;;;;;;;5.57;2.20;;;;;;;6.28;56.12;94426.78;5145624;27;20304;-78
2022/10/19 01:42:27;;;;;;;6.10;2.60;;;;;;;6.21;56.15;94424.44;5145369;27;20027;-77
2022/10/19 01:45:31;;;;;;;4.30;2.38;;;;;;;6.19;56.00;94418.63;5145298;27;20229;-78
2022/10/19 01:48:09;;;;;;;5.70;2.63;;;;;;;6.12;55.92;94418.09;5138293;27;20095;-78
2022/10/19 01:50:42;;;;;;;10.25;2.20;;;;;;;6.13;55.59;94421.56;5145265;27;20039;-78
2022/10/19 01:53:09;;;;;;;;;;;;;;;6.12;55.45;94420.75;5145527;27;20039;-78
2022/10/19 01:55:38;;;;;;;8.18;2.40;;;;;;;6.09;55.54;94421.31;5144964;27;19919;-78
2022/10/19 01:58:08;;;;;;;4.50;2.47;;;;;;;6.08;56.27;94410.97;5145038;27;20023;-78
2022/10/19 02:00:37;;;;;;;3.08;1.70;;;;;;;6.05;56.48;94417.63;5145300;27;20213;-78
2022/10/19 02:03:04;;;;;;;4.82;2.38;;;;;;;6.03;56.75;94419.75;5144684;27;20145;-78
2022/10/19 02:05:32;;;;;;;3.05;1.83;;;;;;;6.00;56.96;94417.63;5144888;27;20025;-78
2022/10/19 02:08:05;;;;;;;5.88;2.10;;;;;;;5.99;56.68;94416.06;5145138;27;20221;-78
2022/10/19 02:10:33;;;;;;;6.65;2.70;;;;;;;5.94;56.57;94408.91;5145144;27;20041;-77
2022/10/19 02:13:01;;;;;;;4.00;2.22;;;;;;;5.92;56.97;94416.31;5145011;27;20043;-78
2022/10/19 02:15:30;;;;;;;4.35;2.60;;;;;;;5.87;57.15;94408.38;5144880;27;20056;-78
2022/10/19 02:17:59;;;;;;;4.22;2.38;;;;;;;5.82;57.13;94406.56;5144807;27;20250;-78
2022/10/19 02:20:27;;;;;;;6.15;2.33;;;;;;;5.83;57.46;94416.06;5144731;27;20023;-78
2022/10/19 02:22:52;;;;;;;5.75;2.17;;;;;;;5.81;57.55;94406.81;5144543;27;20041;-78
2022/10/19 02:25:18;;;;;;;9.25;2.97;;;;;;;5.79;57.51;94408.94;5143346;27;20038;-78
2022/10/19 02:27:44;;;;;;;7.22;3.67;;;;;;;5.73;57.85;94402.06;5144559;27;20030;-78
2022/10/19 02:30:16;;;;;;;8.48;3.83;;;;;;;5.72;58.09;94408.41;5144526;27;20015;-78
2022/10/19 02:32:42;;;;;;;12.07;5.10;;;;;;;5.69;58.14;94396.53;5144572;27;20021;-77
2022/10/19 02:35:10;;;;;;;12.10;4.47;;;;;;;5.66;58.23;94399.72;5144374;27;20019;-77
2022/10/19 02:37:36;;;;;;;9.50;4.18;;;;;;;5.64;58.26;94404.50;5144165;27;20023;-77
2022/10/19 02:40:03;;;;;;;9.48;3.88;;;;;;;5.60;58.48;94398.16;5144426;27;20082;-77
2022/10/19 02:42:38;;;;;;;7.70;3.53;;;;;;;5.59;58.53;94407.13;5144690;27;20031;-79
2022/10/19 02:45:09;;;;;;;7.45;3.45;;;;;;;5.58;58.72;94402.91;5144194;27;20246;-78
2022/10/19 02:47:52;;;;;;;7.30;3.72;;;;;;;5.55;58.80;94403.44;5144254;27;20018;-77
2022/10/19 02:50:19;;;;;;;6.30;3.45;;;;;;;5.51;58.96;94408.47;5144168;27;20030;-78
2022/10/19 02:52:44;;;;;;;6.90;2.95;;;;;;;5.50;58.71;94396.31;5144422;27;20086;-77
2022/10/19 02:55:10;;;;;;;6.78;3.17;;;;;;;5.51;58.23;94394.44;5144066;27;20347;-78
2022/10/19 02:57:36;;;;;;;6.78;3.60;;;;;;;5.52;57.92;94399.47;5143979;27;20082;-78
2022/10/19 03:00:06;;;;;;;7.30;3.10;;;;;;;5.54;58.23;94391.28;5144248;27;20023;-78
2022/10/19 03:02:32;;;;;;;10.63;2.70;;;;;;;5.50;58.01;94393.66;5144170;27;20015;-78
2022/10/19 03:04:57;;;;;;;4.72;2.40;;;;;;;5.48;58.00;94382.56;5144163;27;20026;-78
2022/10/19 03:07:23;;;;;;;3.58;2.47;;;;;;;5.46;57.97;94391.84;5144036;27;20015;-78
2022/10/19 03:09:48;;;;;;;5.50;2.78;;;;;;;5.43;57.90;94391.31;5143984;27;20019;-77
2022/10/19 03:12:14;;;;;;;4.20;2.22;;;;;;;5.44;57.98;94392.09;5143999;27;20026;-77
2022/10/19 03:14:40;;;;;;;4.85;2.10;;;;;;;5.43;57.68;94391.31;5143998;27;20020;-77
2022/10/19 03:17:05;;;;;;;8.35;2.72;;;;;;;5.46;57.50;94399.75;5148383;27;20098;-77
2022/10/19 03:19:32;;;;;;;4.50;2.05;;;;;;;5.48;57.13;94397.66;5148273;27;20085;-77
2022/10/19 03:21:58;;;;;;;4.65;2.33;;;;;;;5.49;57.47;94399.22;5148129;27;20027;-77
2022/10/19 03:24:23;;;;;;;5.15;2.08;;;;;;;5.48;57.36;94398.44;5148175;27;20318;-78
2022/10/19 03:26:49;;;;;;;6.55;2.92;;;;;;;5.50;57.36;94398.16;5148077;27;20042;-78
2022/10/19 03:29:14;;;;;;;3.60;1.88;;;;;;;5.49;57.44;94400.00;5147828;27;20015;-77
2022/10/19 03:31:40;;;;;;;4.30;2.30;;;;;;;5.51;57.57;94402.38;5147954;27;20235;-78
2022/10/19 03:34:05;;;;;;;4.32;2.45;;;;;;;5.49;58.04;94404.50;5147931;27;20218;-77
2022/10/19 03:36:36;;;;;;;4.78;2.65;;;;;;;5.48;57.94;94398.44;5148015;27;20099;-77
2022/10/19 03:39:04;;;;;;;6.75;2.50;;;;;;;5.43;58.03;94390.50;5148062;27;20019;-77
2022/10/19 03:41:34;;;;;;;8.82;2.50;;;;;;;5.44;58.11;94384.16;5148066;27;20221;-77
2022/10/19 03:44:00;;;;;;;8.77;2.60;;;;;;;5.41;58.26;94388.13;5147992;27;20247;-77
2022/10/19 03:46:26;;;;;;;5.45;2.67;;;;;;;5.38;58.46;94378.09;5147756;27;20007;-77
2022/10/19 03:48:52;;;;;;;10.35;3.00;;;;;;;5.39;58.45;94379.69;5147743;27;20060;-77
2022/10/19 03:51:20;;;;;;;9.15;3.00;;;;;;;5.37;58.66;94381.00;5147655;27;20050;-78
2022/10/19 03:53:45;;;;;;;9.05;3.47;;;;;;;5.39;58.51;94379.69;5147551;27;20015;-78
2022/10/19 03:56:17;;;;;;;10.23;2.85;;;;;;;5.37;58.71;94381.81;5147501;27;20031;-78
2022/10/19 03:58:43;;;;;;;4.33;2.47;;;;;;;5.36;59.11;94374.91;5147520;27;20295;-78
2022/10/19 04:01:15;;;;;;;6.93;3.05;;;;;;;5.32;59.05;94367.78;5147481;27;20212;-78
2022/10/19 04:03:41;;;;;;;5.63;2.97;;;;;;;5.29;58.81;94378.88;5147707;27;20092;-78
2022/10/19 04:06:09;;;;;;;7.03;2.53;;;;;;;5.26;58.89;94368.88;5147368;27;20406;-78
2022/10/19 04:08:34;;;;;;;5.75;2.40;;;;;;;5.23;58.40;94380.72;5147218;27;20015;-78
2022/10/19 04:11:06;;;;;;;7.78;2.65;;;;;;;5.25;58.61;94389.22;5147332;27;20072;-78
2022/10/19 04:13:33;;;;;;;6.18;3.35;;;;;;;5.23;58.98;94386.84;5147389;27;20076;-78
2022/10/19 04:15:59;;;;;;;8.98;3.28;;;;;;;5.23;59.16;94380.72;5147200;27;20034;-78
2022/10/19 04:18:24;;;;;;;8.57;2.85;;;;;;;5.13;59.82;94375.47;5147157;27;20071;-78
2022/10/19 04:21:01;;;;;;;7.93;3.30;;;;;;;5.13;59.99;94371.00;5146875;27;20038;-78
2022/10/19 04:23:28;;;;;;;5.47;3.03;;;;;;;5.13;60.06;94370.19;5146980;27;20053;-78
2022/10/19 04:26:01;;;;;;;8.18;3.60;;;;;;;5.12;60.06;94361.47;5146868;27;20035;-78
2022/10/19 04:28:27;;;;;;;7.68;3.25;;;;;;;5.15;59.82;94362.78;5145978;27;20042;-78
2022/10/19 04:30:52;;;;;;;8.13;3.65;;;;;;;5.15;59.79;94358.31;5146857;27;20019;-78
2022/10/19 04:33:18;;;;;;;7.80;4.30;;;;;;;5.12;60.27;94363.31;5146636;27;20090;-77
2022/10/19 04:35:43;;;;;;;9.00;4.07;;;;;;;5.11;60.48;94346.69;5146555;27;20014;-77
2022/10/19 04:38:09;;;;;;;8.35;4.10;;;;;;;5.12;60.00;94350.09;5146477;27;20049;-77
2022/10/19 04:40:35;;;;;;;11.05;3.95;;;;;;;5.12;60.09;94358.81;5146601;27;20336;-76
2022/10/19 04:43:01;;;;;;;13.60;4.30;;;;;;;5.12;60.35;94347.47;5146475;27;20026;-76
2022/10/19 04:45:26;;;;;;;22.02;4.00;;;;;;;5.13;60.47;94349.84;5146393;27;20313;-76
2022/10/19 04:47:55;;;;;;;12.77;3.45;;;;;;;5.14;60.25;94355.94;5146363;27;20027;-78
2022/10/19 04:50:21;;;;;;;15.15;4.32;;;;;;;5.13;60.27;94360.44;5146485;27;20038;-77
2022/10/19 04:52:46;;;;;;;11.02;3.63;;;;;;;5.15;60.34;94365.41;5146567;27;20035;-77
2022/10/19 04:55:12;;;;;;;11.90;4.55;;;;;;;5.19;60.62;94361.19;5146342;27;20098;-77
2022/10/19 04:57:37;;;;;;;16.25;4.95;;;;;;;5.17;61.12;94366.75;5146515;27;20225;-77
2022/10/19 05:00:03;;;;;;;14.75;3.95;;;;;;;5.18;61.51;94364.91;5146051;27;20079;-78
2022/10/19 05:02:29;;;;;;;27.55;4.10;;;;;;;5.18;61.49;94367.53;5146364;27;20030;-77
2022/10/19 05:04:54;;;;;;;11.88;4.40;;;;;;;5.15;61.86;94357.50;5146114;27;20023;-77
2022/10/19 05:07:19;;;;;;;10.23;4.60;;;;;;;5.15;61.68;94353.03;5146122;27;20015;-77
2022/10/19 05:09:45;;;;;;;21.08;5.20;;;;;;;5.18;61.03;94362.25;5146351;27;20019;-77
2022/10/19 05:12:10;;;;;;;19.75;5.40;;;;;;;5.22;61.15;94364.09;5145937;27;20031;-78
2022/10/19 05:14:36;;;;;;;19.48;5.65;;;;;;;5.24;61.49;94366.47;5144619;27;20035;-73
2022/10/19 05:17:02;;;;;;;11.23;4.82;;;;;;;5.26;62.32;94358.28;5145662;27;20023;-74
2022/10/19 05:19:27;;;;;;;10.93;4.97;;;;;;;5.26;62.34;94356.44;5145667;27;20025;-78
2022/10/19 05:21:53;;;;;;;30.25;5.78;;;;;;;5.29;62.20;94349.81;5145877;27;20549;-78
2022/10/19 05:24:18;;;;;;;20.17;6.10;;;;;;;5.34;62.31;94349.81;5145740;27;20090;-78
2022/10/19 05:26:43;;;;;;;15.77;5.47;;;;;;;5.39;62.37;94342.69;5145494;27;20053;-79
2022/10/19 05:29:11;;;;;;;15.25;5.45;;;;;;;5.46;62.16;94352.97;5145503;27;20014;-79
2022/10/19 05:31:37;;;;;;;15.88;6.25;;;;;;;5.51;62.36;94347.66;5145417;27;20080;-78
2022/10/19 05:34:02;;;;;;;24.30;7.00;;;;;;;5.55;62.71;94350.56;5145545;27;20084;-78
2022/10/19 05:36:39;;;;;;;24.52;6.63;;;;;;;5.61;62.75;94357.41;5145717;27;20082;-78
2022/10/19 05:39:12;;;;;;;16.58;6.75;;;;;;;5.68;62.25;94360.56;5145263;27;20015;-79
2022/10/19 05:41:37;;;;;;;24.45;8.25;;;;;;;5.74;61.84;94362.13;5145196;27;20313;-79
2022/10/19 05:44:04;;;;;;;23.45;7.82;;;;;;;5.76;61.64;94354.72;5145381;27;20050;-78
2022/10/19 05:46:31;;;;;;;30.45;9.50;;;;;;;5.85;61.28;94359.44;5145230;27;20029;-78
2022/10/19 05:48:58;;;;;;;20.92;8.70;;;;;;;5.85;61.31;94364.75;5145219;27;20086;-78
2022/10/19 05:51:25;;;;;;;32.58;8.90;;;;;;;5.92;61.07;94360.75;5145192;27;20202;-78
2022/10/19 05:53:53;;;;;;;25.50;8.18;;;;;;;6.01;60.66;94358.34;5144960;27;20026;-79
2022/10/19 05:56:21;;;;;;;24.15;7.55;;;;;;;6.08;60.77;94369.41;5145109;27;20271;-80
2022/10/19 05:58:48;;;;;;;38.15;9.15;;;;;;;6.14;61.16;94363.03;5145089;27;20095;-79
2022/10/19 06:01:14;;;;;;;27.58;9.30;;;;;;;6.21;60.59;94368.84;5144903;27;20303;-79
2022/10/19 06:03:40;;;;;;;42.70;9.73;;;;;;;6.27;60.59;94361.69;5144847;27;20019;-79
2022/10/19 06:06:07;;;;;;;37.53;9.88;;;;;;;6.33;60.34;94359.75;5144844;27;20257;-78
2022/10/19 06:08:33;;;;;;;26.40;8.77;;;;;;;6.43;60.12;94362.34;5144906;27;20019;-78
2022/10/19 06:11:06;;;;;;;35.17;9.55;;;;;;;6.52;59.87;94363.38;5145085;27;20038;-77
2022/10/19 06:13:32;;;;;;;33.60;10.27;;;;;;;6.57;59.86;94373.13;5145020;27;20023;-77
2022/10/19 06:15:57;;;;;;;37.17;9.77;;;;;;;6.61;59.95;94371.50;5144711;27;20351;-77
2022/10/19 06:18:25;;;;;;;31.67;9.80;;;;;;;6.65;59.70;94377.84;5144482;27;20370;-77
2022/10/19 06:20:51;;;;;;;40.05;9.60;;;;;;;6.68;59.77;94379.97;5144722;27;20058;-78
2022/10/19 06:23:17;;;;;;;31.70;10.65;;;;;;;6.69;59.94;94386.03;5144390;27;20077;-78
2022/10/19 06:25:43;;;;;;;29.95;8.38;;;;;;;6.73;59.93;94381.78;5144550;27;20022;-77
2022/10/19 06:28:08;;;;;;;27.05;10.23;;;;;;;6.80;59.82;94383.06;5144533;27;20045;-77
2022/10/19 06:30:37;;;;;;;28.55;9.57;;;;;;;6.86;59.86;94389.13;5144295;27;20023;-78
2022/10/19 06:33:03;;;;;;;24.63;8.55;;;;;;;6.95;59.65;94397.25;5144575;27;20031;-78
2022/10/19 06:35:28;;;;;;;21.40;8.98;;;;;;;7.03;59.22;94394.78;5144555;27;20019;-78
2022/10/19 06:37:56;;;;;;;29.17;10.25;;;;;;;7.12;58.68;94387.03;5144067;27;20087;-77
2022/10/19 06:40:22;;;;;;;22.33;10.05;;;;;;;7.22;58.35;94392.28;5143805;27;20023;-78
2022/10/19 06:42:48;;;;;;;26.25;10.27;;;;;;;7.31;58.15;94389.81;5143098;27;20023;-79
2022/10/19 06:45:16;;;;;;;27.90;9.70;;;;;;;7.44;57.82;94383.84;5144311;27;20026;-78
2022/10/19 06:47:45;;;;;;;43.25;12.38;;;;;;;7.51;57.81;94382.72;5142779;27;20022;-78
2022/10/19 06:50:11;;;;;;;28.45;9.95;;;;;;;7.66;57.54;94379.13;5143384;27;20128;-77
2022/10/19 06:52:37;;;;;;;37.92;10.20;;;;;;;7.75;57.33;94378.22;5143790;27;20035;-77
2022/10/19 06:55:02;;;;;;;29.20;9.18;;;;;;;7.83;56.41;94369.63;5143737;27;20251;-77
2022/10/19 06:57:28;;;;;;;21.38;9.02;;;;;;;7.94;55.52;94374.84;5143750;27;20064;-77
2022/10/19 06:59:54;;;;;;;22.08;8.30;;;;;;;8.02;54.65;94367.03;5143677;27;20023;-77
2022/10/19 07:02:20;;;;;;;24.20;8.43;;;;;;;8.15;54.47;94356.81;5142455;27;20053;-78
2022/10/19 07:04:46;;;;;;;28.70;8.10;;;;;;;8.27;54.25;94357.19;5142826;27;20220;-77
2022/10/19 07:07:11;;;;;;;31.02;8.80;;;;;;;8.31;54.54;94357.41;5143741;27;20019;-77
2022/10/19 07:09:37;;;;;;;39.20;11.45;;;;;;;8.43;54.07;94360.44;5143683;27;20051;-77
2022/10/19 07:12:02;;;;;;;39.63;9.90;;;;;;;8.49;53.97;94355.84;5143624;28;20041;-77
2022/10/19 07:14:28;;;;;;;27.70;9.75;;;;;;;8.53;53.85;94360.31;5143726;28;20038;-77
2022/10/19 07:16:54;;;;;;;29.02;9.20;;;;;;;8.59;53.89;94355.72;5143626;27;20027;-77
2022/10/19 07:19:20;;;;;;;38.85;9.50;;;;;;;8.68;53.21;94361.16;5143989;27;20210;-77
2022/10/19 07:21:49;;;;;;;39.45;9.70;;;;;;;8.75;53.10;94359.72;5143408;27;20043;-78
2022/10/19 07:24:14;;;;;;;38.10;9.38;;;;;;;8.81;53.04;94357.75;5143501;27;20189;-78
2022/10/19 07:26:40;;;;;;;35.30;10.05;;;;;;;8.90;52.99;94357.91;5143318;27;20026;-78
2022/10/19 07:29:05;;;;;;;33.67;8.93;;;;;;;8.95;52.75;94347.97;5143944;28;20087;-78
2022/10/19 07:31:31;;;;;;;29.33;8.98;;;;;;;9.01;52.91;94354.78;5143666;27;20217;-78
2022/10/19 07:34:03;;;;;;;22.08;9.75;;;;;;;9.05;53.06;94347.03;5143305;27;20015;-77
2022/10/19 07:36:30;;;;;;;26.17;9.02;;;;;;;9.12;52.62;94351.97;5143446;27;20308;-77
2022/10/19 07:38:55;;;;;;;32.35;10.25;;;;;;;9.20;52.37;94346.00;5143427;27;20151;-77
2022/10/19 07:41:23;;;;;;;27.00;8.98;;;;;;;9.30;52.14;94350.34;5143326;27;20328;-77
2022/10/19 07:43:49;;;;;;;18.40;9.32;;;;;;;9.34;52.00;94343.34;5143488;27;20031;-77
2022/10/19 07:46:18;;;;;;;25.13;9.25;;;;;;;9.33;52.49;94347.88;5143316;27;20041;-77
2022/10/19 07:48:43;;;;;;;22.42;9.57;;;;;;;9.40;51.63;94340.31;5143166;27;20267;-77
2022/10/19 07:51:10;;;;;;;32.20;9.85;;;;;;;9.53;51.61;94332.66;5143339;27;20019;-85
2022/10/19 07:53:37;;;;;;;22.60;10.07;;;;;;;9.61;51.61;94330.09;5143372;27;20217;-78
2022/10/19 07:56:08;;;;;;;23.05;10.18;;;;;;;9.66;51.45;94318.56;5143229;27;20062;-78
2022/10/19 07:58:35;;;;;;;25.00;9.80;;;;;;;9.82;50.79;94330.47;5143277;27;20041;-77
2022/10/19 08:01:15;;;;;;;27.00;10.13;;;;;;;9.95;50.48;94318.28;5143119;27;20313;-78
2022/10/19 08:03:41;;;;;;;25.58;9.40;;;;;;;10.05;50.20;94314.59;5147267;27;20052;-78
2022/10/19 08:06:09;;;;;;;28.33;10.50;;;;;;;10.14;49.88;94304.81;5147563;27;20019;-78
2022/10/19 08:08:35;;;;;;;23.02;10.15;;;;;;;10.30;49.65;94307.16;5147249;27;20035;-78
2022/10/19 08:11:11;;;;;;;40.92;11.13;;;;;;;10.41;50.10;94311.97;5146263;27;20090;-78
2022/10/19 08:13:37;;;;;;;30.25;10.82;;;;;;;10.54;49.49;94307.72;5147426;27;20276;-78
2022/10/19 08:16:04;;;;;;;39.28;12.23;;;;;;;10.62;49.02;94312.34;5147150;27;20023;-79
2022/10/19 08:18:29;;;;;;;26.55;11.15;;;;;;;10.73;48.95;94310.22;5147365;27;20256;-79
2022/10/19 08:20:55;;;;;;;33.33;12.98;;;;;;;10.87;49.10;94314.69;5147216;27;20019;-79
2022/10/19 08:23:24;;;;;;;25.85;10.80;;;;;;;10.99;48.04;94307.72;5147239;27;20041;-79
2022/10/19 08:25:49;;;;;;;28.52;12.43;;;;;;;11.14;48.58;94311.09;5147296;27;20108;-79
2022/10/19 08:28:15;;;;;;;33.53;12.25;;;;;;;11.22;48.00;94305.03;5147093;27;20037;-78
2022/10/19 08:30:40;;;;;;;43.25;14.50;;;;;;;11.34;47.29;94302.59;5146797;27;20038;-77
2022/10/19 08:33:07;;;;;;;34.45;13.68;;;;;;;11.44;47.17;94296.97;5147061;27;20332;-78
2022/10/19 08:35:33;;;;;;;39.03;12.70;;;;;;;11.58;47.07;94296.88;5146735;27;20493;-79
2022/10/19 08:37:59;;;;;;;24.67;12.73;;;;;;;11.73;46.73;94287.66;5146978;27;20042;-78
2022/10/19 08:40:28;;;;;;;26.85;9.30;;;;;;;11.95;45.37;94284.16;5146854;27;20019;-79
2022/10/19 08:43:03;;;;;;;38.88;9.38;;;;;;;12.20;45.01;94287.97;5146677;27;20063;-79
2022/10/19 08:45:50;;;;;;;24.40;8.20;;;;;;;12.43;44.46;94290.50;5146808;27;20027;-78
2022/10/19 08:48:26;;;;;;;11.85;5.45;;;;;;;12.73;42.87;94279.97;5146738;27;20023;-77
2022/10/19 08:50:52;;;;;;;15.40;6.43;;;;;;;12.96;42.69;94278.66;5146629;27;20209;-78
2022/10/19 08:53:30;;;;;;;16.48;5.57;;;;;;;13.16;42.16;94281.78;5146540;27;20019;-77
2022/10/19 08:56:08;;;;;;;27.83;6.43;;;;;;;13.29;42.05;94274.66;5146331;27;20262;-77
2022/10/19 08:58:58;;;;;;;17.00;5.97;;;;;;;13.48;42.10;94277.03;5146445;27;20035;-78
2022/10/19 09:01:29;;;;;;;20.23;6.55;;;;;;;13.63;41.66;94268.44;5146478;27;20205;-78
2022/10/19 09:04:04;;;;;;;15.40;5.38;;;;;;;13.82;40.98;94273.41;5146411;27;20328;-77
2022/10/19 09:06:48;;;;;;;21.60;5.60;;;;;;;13.99;41.59;94277.88;5146292;27;20027;-78
2022/10/19 09:09:15;;;;;;;11.98;4.63;;;;;;;14.14;40.28;94277.31;5146494;27;20027;-77
2022/10/19 09:11:47;;;;;;;19.75;5.20;;;;;;;14.17;40.43;94263.25;5145923;27;20067;-77
2022/10/19 09:14:29;;;;;;;11.82;3.60;;;;;;;14.33;40.28;94262.69;5145665;27;20068;-77
2022/10/19 09:17:18;;;;;;;12.48;3.63;;;;;;;14.43;39.94;94278.38;5145779;27;20023;-78
2022/10/19 09:19:44;;;;;;;9.18;2.78;;;;;;;14.58;39.36;94267.09;5145625;27;20106;-78
2022/10/19 09:22:20;;;;;;;8.48;3.45;;;;;;;14.63;39.64;94266.91;5145578;27;20039;-77
2022/10/19 09:25:07;;;;;;;12.75;3.47;;;;;;;14.75;39.96;94250.06;5145782;27;20019;-78
2022/10/19 09:27:37;;;;;;;16.30;3.45;;;;;;;14.85;39.25;94268.44;5145736;27;20023;-78
2022/10/19 09:30:12;;;;;;;14.98;3.47;;;;;;;14.91;39.36;94255.59;5145454;27;20057;-78
2022/10/19 09:32:38;;;;;;;7.82;3.30;;;;;;;14.93;38.90;94272.16;5145611;27;20042;-77
2022/10/19 09:35:18;;;;;;;6.40;2.85;;;;;;;14.95;38.40;94269.94;5145653;27;20019;-77
2022/10/19 09:37:48;;;;;;;12.07;3.33;;;;;;;14.92;38.92;94267.94;5145445;27;20080;-77
2022/10/19 09:40:20;;;;;;;14.80;3.20;;;;;;;14.99;38.34;94276.22;5145407;27;20098;-78
2022/10/19 09:43:18;;;;;;;5.60;2.58;;;;;;;15.07;38.11;94276.47;5145533;27;20198;-78
2022/10/19 09:46:12;;;;;;;26.80;4.75;;;;;;;15.05;38.44;94271.44;5145434;27;20030;-77
2022/10/19 09:48:48;;;;;;;9.73;3.20;;;;;;;15.14;38.16;94272.13;5145343;27;20019;-77
2022/10/19 09:51:15;;;;;;;15.38;3.17;;;;;;;15.17;37.67;94262.63;5145173;27;20015;-77
2022/10/19 09:53:46;;;;;;;5.63;2.40;;;;;;;15.18;37.38;94269.56;5144977;27;20019;-77
2022/10/19 09:56:24;;;;;;;7.32;3.42;;;;;;;15.28;37.96;94271.03;5144821;27;20110;-77
2022/10/19 09:58:52;;;;;;;17.00;3.30;;;;;;;15.40;37.10;94266.47;5144998;27;20027;-77
2022/10/19 10:01:34;;;;;;;10.40;3.22;;;;;;;15.50;36.74;94256.44;5145172;27;20041;-77
2022/10/19 10:04:14;;;;;;;8.02;3.10;;;;;;;15.55;37.66;94270.44;5144994;27;20068;-78
2022/10/19 10:06:41;;;;;;;6.10;2.67;;;;;;;15.55;36.98;94258.88;5144934;27;20091;-77
2022/10/19 10:09:16;;;;;;;6.65;2.78;;;;;;;15.60;35.70;94264.03;5144854;27;20023;-78
2022/10/19 10:11:46;;;;;;;6.45;2.90;;;;;;;15.62;36.63;94251.06;5145392;27;20026;-77
2022/10/19 10:14:26;;;;;;;7.95;2.78;;;;;;;15.71;35.65;94253.63;5145550;27;20019;-77
2022/10/19 10:17:00;;;;;;;6.22;2.88;;;;;;;15.75;35.65;94249.19;5145434;27;20019;-80
2022/10/19 10:19:27;;;;;;;11.13;2.58;;;;;;;15.77;35.82;94233.50;5144963;27;20026;-79
2022/10/19 10:21:55;;;;;;;4.75;2.88;;;;;;;15.86;34.68;94244.16;5144430;27;20031;-80
2022/10/19 10:24:23;;;;;;;8.05;2.92;;;;;;;15.91;34.75;94220.50;5144198;27;20019;-79
2022/10/19 10:26:52;;;;;;;7.00;2.55;;;;;;;15.99;34.43;94226.91;5144102;27;20327;-77
2022/10/19 10:29:25;;;;;;;4.50;2.50;;;;;;;16.05;33.06;94222.84;5144332;27;20050;-76
2022/10/19 10:32:06;;;;;;;6.95;2.22;;;;;;;16.10;31.35;94222.63;5144207;27;20212;-76
2022/10/19 10:34:47;;;;;;;5.07;3.15;;;;;;;16.08;32.21;94219.50;5144496;27;20082;-74
2022/10/19 10:37:38;;;;;;;4.88;2.45;;;;;;;16.17;31.47;94219.38;5144364;27;20026;-75
2022/10/19 10:40:14;;;;;;;10.95;3.55;;;;;;;16.23;31.73;94205.34;5138400;27;20039;-74
2022/10/19 10:42:44;;;;;;;6.97;2.58;;;;;;;16.28;31.33;94198.16;5144157;27;20037;-74
2022/10/19 10:45:37;;;;;;;7.45;2.17;;;;;;;16.39;30.00;94199.25;5144256;27;20019;-77
2022/10/19 10:48:18;;;;;;;7.57;2.05;;;;;;;16.45;29.59;94187.91;5139595;27;20035;-76
2022/10/19 10:50:44;;;;;;;9.03;2.80;;;;;;;16.54;30.45;94187.75;5143962;27;20228;-76
2022/10/19 10:53:42;;;;;;;8.13;2.72;;;;;;;16.69;29.22;94185.44;5143837;27;20031;-77
2022/10/19 10:56:22;;;;;;;17.95;3.25;;;;;;;16.80;30.26;94179.22;5143729;27;20038;-77
2022/10/19 10:59:01;;;;;;;5.63;2.83;;;;;;;16.95;28.84;94183.09;5143834;27;20084;-76
2022/10/19 11:01:38;;;;;;;7.05;2.20;;;;;;;16.93;29.24;94171.88;5142395;27;20023;-77
2022/10/19 11:04:15;;;;;;;9.30;2.40;;;;;;;17.01;29.40;94164.78;5143538;27;20092;-76
2022/10/19 11:06:46;;;;;;;4.65;2.05;;;;;;;17.07;29.13;94168.78;5143685;27;20194;-75
2022/10/19 11:09:24;;;;;;;3.58;2.10;;;;;;;17.09;28.41;94153.06;5143832;27;20023;-76
2022/10/19 11:11:54;;;;;;;9.45;2.30;;;;;;;17.18;28.00;94166.38;5143874;27;20050;-76
2022/10/19 11:14:30;;;;;;;11.27;2.60;;;;;;;17.22;28.38;94159.94;5143658;27;20035;-76
2022/10/19 11:17:01;;;;;;;8.68;2.38;;;;;;;17.34;29.04;94159.09;5143479;27;20068;-76
2022/10/19 11:19:40;;;;;;;6.28;2.20;;;;;;;17.38;28.88;94154.56;5143699;27;20064;-77
2022/10/19 11:22:30;;;;;;;11.82;2.30;;;;;;;17.50;28.92;94155.59;5143749;27;20022;-77
2022/10/19 11:25:18;;;;;;;8.10;2.30;;;;;;;17.50;27.24;94142.09;5143371;28;20019;-75
2022/10/19 11:28:22;;;;;;;5.18;2.05;;;;;;;17.65;27.25;94149.41;5143434;27;20265;-76
2022/10/19 11:31:09;;;;;;;7.38;1.80;;;;;;;17.67;26.71;94141.75;5142775;28;20062;-75
2022/10/19 11:33:58;;;;;;;4.57;1.95;;;;;;;17.66;26.18;94137.47;5143266;27;20118;-76
2022/10/19 11:36:36;;;;;;;4.20;2.20;;;;;;;17.74;26.62;94136.50;5144622;27;20347;-75
2022/10/19 11:39:04;;;;;;;5.30;2.47;;;;;;;17.88;26.52;94140.69;5147742;27;20098;-75
2022/10/19 11:41:51;;;;;;;4.57;1.95;;;;;;;17.93;25.79;94140.41;5147307;27;20059;-75
2022/10/19 11:44:22;;;;;;;11.65;2.25;;;;;;;17.88;26.71;94127.97;5147370;27;20045;-75
2022/10/19 11:46:59;;;;;;;5.72;2.25;;;;;;;17.93;26.23;94126.91;5147274;27;20030;-74
2022/10/19 11:49:58;;;;;;;7.15;2.25;;;;;;;18.01;26.21;94131.31;5147406;27;20075;-75